sensor_id;sensor_type;location;lat;lon;timestamp;temperature;humidity
25154;DHT22;47555;51.038;6.280;2022-08-19T00:01:35;17.70;99.90
25154;DHT22;47555;51.038;6.280;2022-08-19T00:04:04;17.60;99.90
25154;DHT22;47555;51.038;6.280;2022-08-19T00:06:30;17.60;99.90
25154;DHT22;47555;51.038;6.280;2022-08-19T00:08:57;17.60;99.90
25154;DHT22;47555;51.038;6.280;2022-08-19T00:11:23;17.60;99.90
25154;DHT22;47555;51.038;6.280;2022-08-19T00:13:49;17.60;99.90
25154;DHT22;47555;51.038;6.280;2022-08-19T00:16:16;17.50;99.90
25154;DHT22;47555;51.038;6.280;2022-08-19T00:18:44;17.50;99.90
25154;DHT22;47555;51.038;6.280;2022-08-19T00:21:10;17.50;99.90
25154;DHT22;47555;51.038;6.280;2022-08-19T00:23:37;17.40;99.90
25154;DHT22;47555;51.038;6.280;2022-08-19T00:26:07;17.40;99.90
25154;DHT22;47555;51.038;6.280;2022-08-19T00:28:33;17.40;99.90
25154;DHT22;47555;51.038;6.280;2022-08-19T00:31:02;17.40;99.90
25154;DHT22;47555;51.038;6.280;2022-08-19T00:33:28;17.30;99.90
25154;DHT22;47555;51.038;6.280;2022-08-19T00:35:57;17.40;99.90
25154;DHT22;47555;51.038;6.280;2022-08-19T00:38:22;17.30;99.90
25154;DHT22;47555;51.038;6.280;2022-08-19T00:40:48;17.30;99.90
25154;DHT22;47555;51.038;6.280;2022-08-19T00:43:19;17.30;99.90
25154;DHT22;47555;51.038;6.280;2022-08-19T00:45:44;17.20;99.90
25154;DHT22;47555;51.038;6.280;2022-08-19T00:48:10;17.20;99.90
25154;DHT22;47555;51.038;6.280;2022-08-19T00:50:39;17.20;99.90
25154;DHT22;47555;51.038;6.280;2022-08-19T00:53:09;17.10;99.90
25154;DHT22;47555;51.038;6.280;2022-08-19T00:55:35;17.10;99.90
25154;DHT22;47555;51.038;6.280;2022-08-19T00:58:04;17.10;99.90
25154;DHT22;47555;51.038;6.280;2022-08-19T01:00:33;17.00;99.90
25154;DHT22;47555;51.038;6.280;2022-08-19T01:03:08;17.00;99.90
25154;DHT22;47555;51.038;6.280;2022-08-19T01:05:34;17.00;99.90
25154;DHT22;47555;51.038;6.280;2022-08-19T01:08:03;17.00;99.90
25154;DHT22;47555;51.038;6.280;2022-08-19T01:10:32;17.00;99.90
25154;DHT22;47555;51.038;6.280;2022-08-19T01:12:59;16.90;99.90
25154;DHT22;47555;51.038;6.280;2022-08-19T01:15:31;16.90;99.90
25154;DHT22;47555;51.038;6.280;2022-08-19T01:18:00;16.80;99.90
25154;DHT22;47555;51.038;6.280;2022-08-19T01:20:26;16.80;99.90
25154;DHT22;47555;51.038;6.280;2022-08-19T01:22:55;16.80;99.90
25154;DHT22;47555;51.038;6.280;2022-08-19T01:25:24;16.80;99.90
25154;DHT22;47555;51.038;6.280;2022-08-19T01:27:52;16.70;99.90
25154;DHT22;47555;51.038;6.280;2022-08-19T01:30:22;16.70;99.90
25154;DHT22;47555;51.038;6.280;2022-08-19T01:32:49;16.70;99.90
25154;DHT22;47555;51.038;6.280;2022-08-19T01:35:15;16.70;99.90
25154;DHT22;47555;51.038;6.280;2022-08-19T01:37:56;16.70;99.90
25154;DHT22;47555;51.038;6.280;2022-08-19T01:40:24;16.60;99.90
25154;DHT22;47555;51.038;6.280;2022-08-19T01:42:51;16.60;99.90
25154;DHT22;47555;51.038;6.280;2022-08-19T01:45:19;16.60;99.90
25154;DHT22;47555;51.038;6.280;2022-08-19T01:47:45;16.60;99.90
25154;DHT22;47555;51.038;6.280;2022-08-19T01:50:11;16.50;99.90
25154;DHT22;47555;51.038;6.280;2022-08-19T01:52:39;16.50;99.90
25154;DHT22;47555;51.038;6.280;2022-08-19T01:55:08;16.50;99.90
25154;DHT22;47555;51.038;6.280;2022-08-19T01:57:34;16.50;99.90
25154;DHT22;47555;51.038;6.280;2022-08-19T02:00:00;16.50;99.90
25154;DHT22;47555;51.038;6.280;2022-08-19T02:02:27;16.50;99.90
25154;DHT22;47555;51.038;6.280;2022-08-19T02:04:52;16.50;99.90
25154;DHT22;47555;51.038;6.280;2022-08-19T02:07:21;16.40;99.90
25154;DHT22;47555;51.038;6.280;2022-08-19T02:09:47;16.40;99.90
25154;DHT22;47555;51.038;6.280;2022-08-19T02:12:14;16.40;99.90
25154;DHT22;47555;51.038;6.280;2022-08-19T02:14:39;16.40;99.90
25154;DHT22;47555;51.038;6.280;2022-08-19T02:17:05;16.40;99.90
25154;DHT22;47555;51.038;6.280;2022-08-19T02:19:31;16.40;99.90
25154;DHT22;47555;51.038;6.280;2022-08-19T02:21:58;16.40;99.90
25154;DHT22;47555;51.038;6.280;2022-08-19T02:24:25;16.40;99.90
25154;DHT22;47555;51.038;6.280;2022-08-19T02:26:51;16.30;99.90
25154;DHT22;47555;51.038;6.280;2022-08-19T02:29:16;16.30;99.90
25154;DHT22;47555;51.038;6.280;2022-08-19T02:31:42;16.30;99.90
25154;DHT22;47555;51.038;6.280;2022-08-19T02:34:07;16.30;99.90
25154;DHT22;47555;51.038;6.280;2022-08-19T02:36:33;16.30;99.90
25154;DHT22;47555;51.038;6.280;2022-08-19T02:38:59;16.30;99.90
25154;DHT22;47555;51.038;6.280;2022-08-19T02:41:28;16.30;99.90
25154;DHT22;47555;51.038;6.280;2022-08-19T02:43:58;16.20;99.90
25154;DHT22;47555;51.038;6.280;2022-08-19T02:46:29;16.30;99.90
25154;DHT22;47555;51.038;6.280;2022-08-19T02:48:57;16.30;99.90
25154;DHT22;47555;51.038;6.280;2022-08-19T02:51:27;16.20;99.90
25154;DHT22;47555;51.038;6.280;2022-08-19T02:53:53;16.20;99.90
25154;DHT22;47555;51.038;6.280;2022-08-19T02:56:20;16.20;99.90
25154;DHT22;47555;51.038;6.280;2022-08-19T02:58:46;16.20;99.90
25154;DHT22;47555;51.038;6.280;2022-08-19T03:01:29;16.20;99.90
25154;DHT22;47555;51.038;6.280;2022-08-19T03:03:56;16.20;99.90
25154;DHT22;47555;51.038;6.280;2022-08-19T03:06:23;16.10;99.90
25154;DHT22;47555;51.038;6.280;2022-08-19T03:08:49;16.10;99.90
25154;DHT22;47555;51.038;6.280;2022-08-19T03:11:20;16.10;99.90
25154;DHT22;47555;51.038;6.280;2022-08-19T03:13:46;16.10;99.90
25154;DHT22;47555;51.038;6.280;2022-08-19T03:16:15;16.10;99.90
25154;DHT22;47555;51.038;6.280;2022-08-19T03:18:41;16.10;99.90
25154;DHT22;47555;51.038;6.280;2022-08-19T03:21:07;16.00;99.90
25154;DHT22;47555;51.038;6.280;2022-08-19T03:23:33;16.10;99.90
25154;DHT22;47555;51.038;6.280;2022-08-19T03:26:02;16.10;99.90
25154;DHT22;47555;51.038;6.280;2022-08-19T03:28:29;16.10;99.90
25154;DHT22;47555;51.038;6.280;2022-08-19T03:31:02;16.10;99.90
25154;DHT22;47555;51.038;6.280;2022-08-19T03:33:29;16.10;99.90
25154;DHT22;47555;51.038;6.280;2022-08-19T03:36:13;16.20;99.90
25154;DHT22;47555;51.038;6.280;2022-08-19T03:38:45;16.20;99.90
25154;DHT22;47555;51.038;6.280;2022-08-19T03:41:12;16.20;99.90
25154;DHT22;47555;51.038;6.280;2022-08-19T03:43:39;16.20;99.90
25154;DHT22;47555;51.038;6.280;2022-08-19T03:46:17;16.20;99.90
25154;DHT22;47555;51.038;6.280;2022-08-19T03:48:45;16.20;99.90
25154;DHT22;47555;51.038;6.280;2022-08-19T03:51:18;16.10;99.90
25154;DHT22;47555;51.038;6.280;2022-08-19T03:53:45;16.10;99.90
25154;DHT22;47555;51.038;6.280;2022-08-19T03:56:11;16.10;99.90
25154;DHT22;47555;51.038;6.280;2022-08-19T03:58:38;16.10;99.90
25154;DHT22;47555;51.038;6.280;2022-08-19T04:01:11;16.10;99.90
25154;DHT22;47555;51.038;6.280;2022-08-19T04:03:37;16.10;99.90
25154;DHT22;47555;51.038;6.280;2022-08-19T04:06:14;16.10;99.90
25154;DHT22;47555;51.038;6.280;2022-08-19T04:08:41;16.10;99.90
25154;DHT22;47555;51.038;6.280;2022-08-19T04:11:13;16.10;99.90
25154;DHT22;47555;51.038;6.280;2022-08-19T04:13:40;16.00;99.90
25154;DHT22;47555;51.038;6.280;2022-08-19T04:16:07;16.00;99.90
25154;DHT22;47555;51.038;6.280;2022-08-19T04:18:35;16.00;99.90
25154;DHT22;47555;51.038;6.280;2022-08-19T04:21:01;16.00;99.90
25154;DHT22;47555;51.038;6.280;2022-08-19T04:23:27;16.00;99.90
25154;DHT22;47555;51.038;6.280;2022-08-19T04:25:53;16.00;99.90
25154;DHT22;47555;51.038;6.280;2022-08-19T04:28:19;16.00;99.90
25154;DHT22;47555;51.038;6.280;2022-08-19T04:30:47;15.90;99.90
25154;DHT22;47555;51.038;6.280;2022-08-19T04:33:14;15.90;99.90
25154;DHT22;47555;51.038;6.280;2022-08-19T04:35:43;16.00;99.90
25154;DHT22;47555;51.038;6.280;2022-08-19T04:38:09;16.00;99.90
25154;DHT22;47555;51.038;6.280;2022-08-19T04:40:40;16.00;99.90
25154;DHT22;47555;51.038;6.280;2022-08-19T04:43:25;16.00;99.90
25154;DHT22;47555;51.038;6.280;2022-08-19T04:45:50;16.00;99.90
25154;DHT22;47555;51.038;6.280;2022-08-19T04:48:17;16.00;99.90
25154;DHT22;47555;51.038;6.280;2022-08-19T04:50:55;16.00;99.90
25154;DHT22;47555;51.038;6.280;2022-08-19T04:53:29;16.00;99.90
25154;DHT22;47555;51.038;6.280;2022-08-19T04:55:56;16.00;99.90
25154;DHT22;47555;51.038;6.280;2022-08-19T04:58:23;16.00;99.90
25154;DHT22;47555;51.038;6.280;2022-08-19T05:00:50;16.10;99.90
25154;DHT22;47555;51.038;6.280;2022-08-19T05:03:15;16.10;99.90
25154;DHT22;47555;51.038;6.280;2022-08-19T05:05:43;16.10;99.90
25154;DHT22;47555;51.038;6.280;2022-08-19T05:08:10;16.10;99.90
25154;DHT22;47555;51.038;6.280;2022-08-19T05:10:37;16.20;99.90
25154;DHT22;47555;51.038;6.280;2022-08-19T05:13:04;16.20;99.90
25154;DHT22;47555;51.038;6.280;2022-08-19T05:15:30;16.20;99.90
25154;DHT22;47555;51.038;6.280;2022-08-19T05:17:56;16.20;99.90
25154;DHT22;47555;51.038;6.280;2022-08-19T05:20:40;16.30;99.90
25154;DHT22;47555;51.038;6.280;2022-08-19T05:23:24;16.30;99.90
25154;DHT22;47555;51.038;6.280;2022-08-19T05:25:50;16.40;99.90
25154;DHT22;47555;51.038;6.280;2022-08-19T05:28:17;16.50;99.90
25154;DHT22;47555;51.038;6.280;2022-08-19T05:30:43;16.50;99.90
25154;DHT22;47555;51.038;6.280;2022-08-19T05:33:10;16.60;99.90
25154;DHT22;47555;51.038;6.280;2022-08-19T05:35:38;16.60;99.90
25154;DHT22;47555;51.038;6.280;2022-08-19T05:38:05;16.70;99.90
25154;DHT22;47555;51.038;6.280;2022-08-19T05:40:34;16.70;99.90
25154;DHT22;47555;51.038;6.280;2022-08-19T05:43:01;16.70;99.90
25154;DHT22;47555;51.038;6.280;2022-08-19T05:45:27;16.80;99.90
25154;DHT22;47555;51.038;6.280;2022-08-19T05:47:53;16.90;99.90
25154;DHT22;47555;51.038;6.280;2022-08-19T05:50:19;16.90;99.90
25154;DHT22;47555;51.038;6.280;2022-08-19T05:52:45;17.00;99.90
25154;DHT22;47555;51.038;6.280;2022-08-19T05:55:10;17.00;99.90
25154;DHT22;47555;51.038;6.280;2022-08-19T05:57:36;17.10;99.90
25154;DHT22;47555;51.038;6.280;2022-08-19T06:00:04;17.20;99.90
25154;DHT22;47555;51.038;6.280;2022-08-19T06:02:33;17.30;99.90
25154;DHT22;47555;51.038;6.280;2022-08-19T06:05:00;17.30;99.90
25154;DHT22;47555;51.038;6.280;2022-08-19T06:07:27;17.40;99.90
25154;DHT22;47555;51.038;6.280;2022-08-19T06:09:54;17.50;99.90
25154;DHT22;47555;51.038;6.280;2022-08-19T06:12:19;17.50;99.90
25154;DHT22;47555;51.038;6.280;2022-08-19T06:14:51;17.60;99.90
25154;DHT22;47555;51.038;6.280;2022-08-19T06:17:18;17.80;99.90
25154;DHT22;47555;51.038;6.280;2022-08-19T06:19:43;17.80;99.90
25154;DHT22;47555;51.038;6.280;2022-08-19T06:22:09;17.90;99.90
25154;DHT22;47555;51.038;6.280;2022-08-19T06:24:37;17.90;99.90
25154;DHT22;47555;51.038;6.280;2022-08-19T06:27:03;17.90;99.90
25154;DHT22;47555;51.038;6.280;2022-08-19T06:29:30;18.00;99.90
25154;DHT22;47555;51.038;6.280;2022-08-19T06:31:59;18.00;99.90
25154;DHT22;47555;51.038;6.280;2022-08-19T06:34:27;18.10;99.90
25154;DHT22;47555;51.038;6.280;2022-08-19T06:36:54;18.20;99.90
25154;DHT22;47555;51.038;6.280;2022-08-19T06:39:24;18.20;99.90
25154;DHT22;47555;51.038;6.280;2022-08-19T06:41:51;18.30;99.90
25154;DHT22;47555;51.038;6.280;2022-08-19T06:44:19;18.40;99.90
25154;DHT22;47555;51.038;6.280;2022-08-19T06:46:45;18.50;99.90
25154;DHT22;47555;51.038;6.280;2022-08-19T06:49:11;18.60;99.90
25154;DHT22;47555;51.038;6.280;2022-08-19T06:51:40;18.70;99.90
25154;DHT22;47555;51.038;6.280;2022-08-19T06:54:06;18.80;99.90
25154;DHT22;47555;51.038;6.280;2022-08-19T06:56:31;18.80;99.90
25154;DHT22;47555;51.038;6.280;2022-08-19T06:59:03;18.80;99.90
25154;DHT22;47555;51.038;6.280;2022-08-19T07:01:30;18.90;99.90
25154;DHT22;47555;51.038;6.280;2022-08-19T07:03:58;19.00;99.90
25154;DHT22;47555;51.038;6.280;2022-08-19T07:06:25;19.10;99.90
25154;DHT22;47555;51.038;6.280;2022-08-19T07:08:51;19.10;99.90
25154;DHT22;47555;51.038;6.280;2022-08-19T07:11:17;19.10;99.90
25154;DHT22;47555;51.038;6.280;2022-08-19T07:13:44;19.20;99.90
25154;DHT22;47555;51.038;6.280;2022-08-19T07:16:16;19.30;99.90
25154;DHT22;47555;51.038;6.280;2022-08-19T07:18:42;19.40;99.90
25154;DHT22;47555;51.038;6.280;2022-08-19T07:21:22;19.40;99.90
25154;DHT22;47555;51.038;6.280;2022-08-19T07:23:49;19.40;99.90
25154;DHT22;47555;51.038;6.280;2022-08-19T07:26:19;19.50;99.90
25154;DHT22;47555;51.038;6.280;2022-08-19T07:28:47;19.60;99.90
25154;DHT22;47555;51.038;6.280;2022-08-19T07:31:14;19.70;99.90
25154;DHT22;47555;51.038;6.280;2022-08-19T07:33:41;19.80;99.90
25154;DHT22;47555;51.038;6.280;2022-08-19T07:36:09;20.00;99.90
25154;DHT22;47555;51.038;6.280;2022-08-19T07:38:37;20.20;99.90
25154;DHT22;47555;51.038;6.280;2022-08-19T07:41:04;20.40;99.90
25154;DHT22;47555;51.038;6.280;2022-08-19T07:43:30;20.50;99.90
25154;DHT22;47555;51.038;6.280;2022-08-19T07:45:56;20.50;99.90
25154;DHT22;47555;51.038;6.280;2022-08-19T07:48:23;20.50;99.90
25154;DHT22;47555;51.038;6.280;2022-08-19T07:50:52;20.70;99.90
25154;DHT22;47555;51.038;6.280;2022-08-19T07:53:18;20.80;99.90
25154;DHT22;47555;51.038;6.280;2022-08-19T07:55:45;21.00;99.90
25154;DHT22;47555;51.038;6.280;2022-08-19T07:58:13;21.10;99.90
25154;DHT22;47555;51.038;6.280;2022-08-19T08:00:39;21.20;99.90
25154;DHT22;47555;51.038;6.280;2022-08-19T08:03:05;21.30;99.90
25154;DHT22;47555;51.038;6.280;2022-08-19T08:05:32;21.40;99.90
25154;DHT22;47555;51.038;6.280;2022-08-19T08:08:16;21.50;99.90
25154;DHT22;47555;51.038;6.280;2022-08-19T08:10:57;21.60;99.90
25154;DHT22;47555;51.038;6.280;2022-08-19T08:13:23;21.80;99.90
25154;DHT22;47555;51.038;6.280;2022-08-19T08:15:48;21.90;99.90
25154;DHT22;47555;51.038;6.280;2022-08-19T08:18:15;22.10;99.90
25154;DHT22;47555;51.038;6.280;2022-08-19T08:20:40;22.30;99.80
25154;DHT22;47555;51.038;6.280;2022-08-19T08:23:06;22.30;98.80
25154;DHT22;47555;51.038;6.280;2022-08-19T08:25:51;22.40;98.40
25154;DHT22;47555;51.038;6.280;2022-08-19T08:28:17;22.60;97.20
25154;DHT22;47555;51.038;6.280;2022-08-19T08:30:45;22.70;96.10
25154;DHT22;47555;51.038;6.280;2022-08-19T08:33:13;22.80;96.10
25154;DHT22;47555;51.038;6.280;2022-08-19T08:35:40;22.80;95.30
25154;DHT22;47555;51.038;6.280;2022-08-19T08:38:11;22.80;96.10
25154;DHT22;47555;51.038;6.280;2022-08-19T08:40:47;23.00;96.00
25154;DHT22;47555;51.038;6.280;2022-08-19T08:43:32;22.90;94.50
25154;DHT22;47555;51.038;6.280;2022-08-19T08:46:05;22.80;94.00
25154;DHT22;47555;51.038;6.280;2022-08-19T08:48:42;22.80;94.30
25154;DHT22;47555;51.038;6.280;2022-08-19T08:51:15;22.90;94.80
25154;DHT22;47555;51.038;6.280;2022-08-19T08:53:44;22.90;93.40
25154;DHT22;47555;51.038;6.280;2022-08-19T08:56:11;23.00;92.50
25154;DHT22;47555;51.038;6.280;2022-08-19T08:59:00;23.00;90.80
25154;DHT22;47555;51.038;6.280;2022-08-19T09:01:27;23.00;90.90
25154;DHT22;47555;51.038;6.280;2022-08-19T09:03:53;23.00;90.40
25154;DHT22;47555;51.038;6.280;2022-08-19T09:06:38;23.10;88.50
25154;DHT22;47555;51.038;6.280;2022-08-19T09:09:34;23.10;88.70
25154;DHT22;47555;51.038;6.280;2022-08-19T09:17:11;23.20;87.20
25154;DHT22;47555;51.038;6.280;2022-08-19T09:19:57;23.40;87.10
25154;DHT22;47555;51.038;6.280;2022-08-19T09:22:23;23.30;87.90
25154;DHT22;47555;51.038;6.280;2022-08-19T09:24:50;23.40;85.70
25154;DHT22;47555;51.038;6.280;2022-08-19T09:27:18;23.40;87.50
25154;DHT22;47555;51.038;6.280;2022-08-19T09:29:44;23.60;86.70
25154;DHT22;47555;51.038;6.280;2022-08-19T09:32:09;23.60;86.50
25154;DHT22;47555;51.038;6.280;2022-08-19T09:34:35;23.70;85.80
25154;DHT22;47555;51.038;6.280;2022-08-19T09:37:00;23.80;84.50
25154;DHT22;47555;51.038;6.280;2022-08-19T09:39:26;23.90;83.50
25154;DHT22;47555;51.038;6.280;2022-08-19T09:41:52;23.90;83.20
25154;DHT22;47555;51.038;6.280;2022-08-19T09:44:19;24.00;83.20
25154;DHT22;47555;51.038;6.280;2022-08-19T09:46:45;24.10;81.40
25154;DHT22;47555;51.038;6.280;2022-08-19T09:49:16;24.20;81.30
25154;DHT22;47555;51.038;6.280;2022-08-19T09:51:42;24.30;81.40
25154;DHT22;47555;51.038;6.280;2022-08-19T09:54:08;24.60;78.60
25154;DHT22;47555;51.038;6.280;2022-08-19T09:56:34;24.70;77.30
25154;DHT22;47555;51.038;6.280;2022-08-19T09:59:02;24.90;75.00
25154;DHT22;47555;51.038;6.280;2022-08-19T10:01:29;25.10;74.70
25154;DHT22;47555;51.038;6.280;2022-08-19T10:03:57;25.20;72.00
25154;DHT22;47555;51.038;6.280;2022-08-19T10:06:25;25.40;66.50
25154;DHT22;47555;51.038;6.280;2022-08-19T10:08:54;25.50;65.90
25154;DHT22;47555;51.038;6.280;2022-08-19T10:11:20;25.40;64.30
25154;DHT22;47555;51.038;6.280;2022-08-19T10:13:46;25.30;66.50
25154;DHT22;47555;51.038;6.280;2022-08-19T10:16:18;25.20;68.40
25154;DHT22;47555;51.038;6.280;2022-08-19T10:18:45;25.00;70.20
25154;DHT22;47555;51.038;6.280;2022-08-19T10:21:15;25.00;73.40
25154;DHT22;47555;51.038;6.280;2022-08-19T10:23:45;25.10;72.80
25154;DHT22;47555;51.038;6.280;2022-08-19T10:26:13;25.20;70.60
25154;DHT22;47555;51.038;6.280;2022-08-19T10:28:40;25.20;70.10
25154;DHT22;47555;51.038;6.280;2022-08-19T10:31:08;25.20;72.00
25154;DHT22;47555;51.038;6.280;2022-08-19T10:33:35;25.30;70.10
25154;DHT22;47555;51.038;6.280;2022-08-19T10:36:06;25.20;69.70
25154;DHT22;47555;51.038;6.280;2022-08-19T10:38:32;25.10;71.40
25154;DHT22;47555;51.038;6.280;2022-08-19T10:41:13;25.20;71.70
25154;DHT22;47555;51.038;6.280;2022-08-19T10:43:40;25.40;69.00
25154;DHT22;47555;51.038;6.280;2022-08-19T10:46:08;25.50;65.50
25154;DHT22;47555;51.038;6.280;2022-08-19T10:48:34;25.60;63.30
25154;DHT22;47555;51.038;6.280;2022-08-19T10:51:00;25.70;59.90
25154;DHT22;47555;51.038;6.280;2022-08-19T10:53:44;25.70;62.30
25154;DHT22;47555;51.038;6.280;2022-08-19T10:56:09;26.00;62.40
25154;DHT22;47555;51.038;6.280;2022-08-19T10:58:53;26.00;56.70
25154;DHT22;47555;51.038;6.280;2022-08-19T11:01:19;25.90;57.70
25154;DHT22;47555;51.038;6.280;2022-08-19T11:03:45;26.00;56.30
25154;DHT22;47555;51.038;6.280;2022-08-19T11:06:11;26.10;52.30
25154;DHT22;47555;51.038;6.280;2022-08-19T11:08:37;26.20;52.30
25154;DHT22;47555;51.038;6.280;2022-08-19T11:11:04;26.30;50.50
25154;DHT22;47555;51.038;6.280;2022-08-19T11:13:32;26.40;49.70
25154;DHT22;47555;51.038;6.280;2022-08-19T11:16:06;26.30;47.40
25154;DHT22;47555;51.038;6.280;2022-08-19T11:18:37;26.30;42.20
25154;DHT22;47555;51.038;6.280;2022-08-19T11:21:15;26.40;42.70
25154;DHT22;47555;51.038;6.280;2022-08-19T11:23:43;26.30;40.60
25154;DHT22;47555;51.038;6.280;2022-08-19T11:26:09;26.30;41.20
25154;DHT22;47555;51.038;6.280;2022-08-19T11:28:35;26.30;42.70
25154;DHT22;47555;51.038;6.280;2022-08-19T11:31:01;26.30;41.40
25154;DHT22;47555;51.038;6.280;2022-08-19T11:33:29;26.30;42.90
25154;DHT22;47555;51.038;6.280;2022-08-19T11:35:57;26.30;43.50
25154;DHT22;47555;51.038;6.280;2022-08-19T11:38:23;26.30;42.70
25154;DHT22;47555;51.038;6.280;2022-08-19T11:40:56;26.10;43.30
25154;DHT22;47555;51.038;6.280;2022-08-19T11:43:22;26.10;44.70
25154;DHT22;47555;51.038;6.280;2022-08-19T11:45:47;26.10;43.60
25154;DHT22;47555;51.038;6.280;2022-08-19T11:48:14;26.20;41.20
25154;DHT22;47555;51.038;6.280;2022-08-19T11:50:39;26.20;42.70
25154;DHT22;47555;51.038;6.280;2022-08-19T11:53:06;26.40;43.10
25154;DHT22;47555;51.038;6.280;2022-08-19T11:55:32;26.40;41.70
25154;DHT22;47555;51.038;6.280;2022-08-19T11:57:57;26.30;39.00
25154;DHT22;47555;51.038;6.280;2022-08-19T12:00:23;26.30;40.10
25154;DHT22;47555;51.038;6.280;2022-08-19T12:02:48;26.40;39.50
25154;DHT22;47555;51.038;6.280;2022-08-19T12:05:14;26.50;39.50
25154;DHT22;47555;51.038;6.280;2022-08-19T12:07:40;26.70;39.40
25154;DHT22;47555;51.038;6.280;2022-08-19T12:10:06;26.70;38.20
25154;DHT22;47555;51.038;6.280;2022-08-19T12:12:32;26.90;37.70
25154;DHT22;47555;51.038;6.280;2022-08-19T12:14:58;26.90;38.00
25154;DHT22;47555;51.038;6.280;2022-08-19T12:17:25;27.10;37.60
25154;DHT22;47555;51.038;6.280;2022-08-19T12:19:51;27.10;35.10
25154;DHT22;47555;51.038;6.280;2022-08-19T12:22:17;26.90;34.50
25154;DHT22;47555;51.038;6.280;2022-08-19T12:24:43;27.00;35.20
25154;DHT22;47555;51.038;6.280;2022-08-19T12:27:08;27.00;34.50
25154;DHT22;47555;51.038;6.280;2022-08-19T12:29:34;27.10;35.00
25154;DHT22;47555;51.038;6.280;2022-08-19T12:31:59;27.20;34.60
25154;DHT22;47555;51.038;6.280;2022-08-19T12:34:28;27.20;34.30
25154;DHT22;47555;51.038;6.280;2022-08-19T12:36:58;27.10;34.40
25154;DHT22;47555;51.038;6.280;2022-08-19T12:39:25;27.10;34.50
25154;DHT22;47555;51.038;6.280;2022-08-19T12:41:50;27.20;32.90
25154;DHT22;47555;51.038;6.280;2022-08-19T12:44:17;27.30;32.00
25154;DHT22;47555;51.038;6.280;2022-08-19T12:46:42;27.30;29.00
25154;DHT22;47555;51.038;6.280;2022-08-19T12:49:08;27.40;28.40
25154;DHT22;47555;51.038;6.280;2022-08-19T12:51:33;27.50;27.70
25154;DHT22;47555;51.038;6.280;2022-08-19T12:53:59;27.60;28.60
25154;DHT22;47555;51.038;6.280;2022-08-19T12:56:25;27.70;29.10
25154;DHT22;47555;51.038;6.280;2022-08-19T12:58:50;27.80;27.30
25154;DHT22;47555;51.038;6.280;2022-08-19T13:01:17;27.80;26.30
25154;DHT22;47555;51.038;6.280;2022-08-19T13:03:45;27.80;27.10
25154;DHT22;47555;51.038;6.280;2022-08-19T13:06:11;27.90;27.50
25154;DHT22;47555;51.038;6.280;2022-08-19T13:08:37;27.90;27.30
25154;DHT22;47555;51.038;6.280;2022-08-19T13:11:12;27.90;27.10
25154;DHT22;47555;51.038;6.280;2022-08-19T13:13:40;28.00;28.00
25154;DHT22;47555;51.038;6.280;2022-08-19T13:16:08;28.10;27.80
25154;DHT22;47555;51.038;6.280;2022-08-19T13:18:35;28.20;27.10
25154;DHT22;47555;51.038;6.280;2022-08-19T13:21:04;28.30;27.50
25154;DHT22;47555;51.038;6.280;2022-08-19T13:23:32;28.40;26.40
25154;DHT22;47555;51.038;6.280;2022-08-19T13:26:00;28.40;26.40
25154;DHT22;47555;51.038;6.280;2022-08-19T13:28:25;28.40;26.00
25154;DHT22;47555;51.038;6.280;2022-08-19T13:30:51;28.40;26.70
25154;DHT22;47555;51.038;6.280;2022-08-19T13:33:36;28.40;26.90
25154;DHT22;47555;51.038;6.280;2022-08-19T13:36:01;28.40;27.00
25154;DHT22;47555;51.038;6.280;2022-08-19T13:38:27;28.40;27.20
25154;DHT22;47555;51.038;6.280;2022-08-19T13:40:54;28.40;27.50
25154;DHT22;47555;51.038;6.280;2022-08-19T13:43:22;28.40;27.30
25154;DHT22;47555;51.038;6.280;2022-08-19T13:45:52;28.50;27.70
25154;DHT22;47555;51.038;6.280;2022-08-19T13:48:20;28.60;27.80
25154;DHT22;47555;51.038;6.280;2022-08-19T13:50:46;28.70;27.90
25154;DHT22;47555;51.038;6.280;2022-08-19T13:53:15;28.70;27.70
25154;DHT22;47555;51.038;6.280;2022-08-19T13:55:42;28.60;27.40
25154;DHT22;47555;51.038;6.280;2022-08-19T13:58:08;28.50;27.70
25154;DHT22;47555;51.038;6.280;2022-08-19T14:00:37;28.30;28.10
25154;DHT22;47555;51.038;6.280;2022-08-19T14:03:04;28.10;29.30
25154;DHT22;47555;51.038;6.280;2022-08-19T14:05:30;27.80;30.40
25154;DHT22;47555;51.038;6.280;2022-08-19T14:07:56;27.60;30.80
25154;DHT22;47555;51.038;6.280;2022-08-19T14:10:23;27.40;31.40
25154;DHT22;47555;51.038;6.280;2022-08-19T14:12:52;27.40;32.00
25154;DHT22;47555;51.038;6.280;2022-08-19T14:15:18;27.30;32.90
25154;DHT22;47555;51.038;6.280;2022-08-19T14:17:45;27.30;33.10
25154;DHT22;47555;51.038;6.280;2022-08-19T14:20:15;27.10;33.10
25154;DHT22;47555;51.038;6.280;2022-08-19T14:22:41;27.20;33.50
25154;DHT22;47555;51.038;6.280;2022-08-19T14:25:09;27.20;33.40
25154;DHT22;47555;51.038;6.280;2022-08-19T14:27:37;27.20;32.80
25154;DHT22;47555;51.038;6.280;2022-08-19T14:30:07;27.10;32.60
25154;DHT22;47555;51.038;6.280;2022-08-19T14:32:33;27.00;33.10
25154;DHT22;47555;51.038;6.280;2022-08-19T14:34:59;27.00;33.30
25154;DHT22;47555;51.038;6.280;2022-08-19T14:37:25;26.80;33.40
25154;DHT22;47555;51.038;6.280;2022-08-19T14:39:50;26.80;34.10
25154;DHT22;47555;51.038;6.280;2022-08-19T14:42:16;26.80;34.30
25154;DHT22;47555;51.038;6.280;2022-08-19T14:44:42;26.90;35.00
25154;DHT22;47555;51.038;6.280;2022-08-19T14:47:08;26.90;35.10
25154;DHT22;47555;51.038;6.280;2022-08-19T14:49:34;26.90;36.10
25154;DHT22;47555;51.038;6.280;2022-08-19T14:52:00;26.90;36.10
25154;DHT22;47555;51.038;6.280;2022-08-19T14:54:26;27.00;36.70
25154;DHT22;47555;51.038;6.280;2022-08-19T14:56:51;27.00;36.40
25154;DHT22;47555;51.038;6.280;2022-08-19T14:59:17;27.20;36.60
25154;DHT22;47555;51.038;6.280;2022-08-19T15:01:43;27.40;36.40
25154;DHT22;47555;51.038;6.280;2022-08-19T15:04:09;27.50;35.90
25154;DHT22;47555;51.038;6.280;2022-08-19T15:06:35;27.60;35.30
25154;DHT22;47555;51.038;6.280;2022-08-19T15:09:01;27.70;34.90
25154;DHT22;47555;51.038;6.280;2022-08-19T15:11:28;27.70;34.70
25154;DHT22;47555;51.038;6.280;2022-08-19T15:13:55;27.70;34.60
25154;DHT22;47555;51.038;6.280;2022-08-19T15:16:21;27.60;35.10
25154;DHT22;47555;51.038;6.280;2022-08-19T15:18:52;27.50;35.60
25154;DHT22;47555;51.038;6.280;2022-08-19T15:21:18;27.40;36.20
25154;DHT22;47555;51.038;6.280;2022-08-19T15:23:45;27.20;36.70
25154;DHT22;47555;51.038;6.280;2022-08-19T15:26:11;27.00;37.20
25154;DHT22;47555;51.038;6.280;2022-08-19T15:28:38;27.00;38.00
25154;DHT22;47555;51.038;6.280;2022-08-19T15:31:04;26.80;38.00
25154;DHT22;47555;51.038;6.280;2022-08-19T15:33:32;26.70;38.70
25154;DHT22;47555;51.038;6.280;2022-08-19T15:35:57;26.50;39.30
25154;DHT22;47555;51.038;6.280;2022-08-19T15:38:23;26.40;40.10
25154;DHT22;47555;51.038;6.280;2022-08-19T15:40:51;26.20;41.40